Terry, MT

11:53 PM MST on December 06, 2019 (GMT -0700)
Dawson Community | | Change Station
Active Advisory: Winter Weather Advisory

Elev 2454 ft 47.14 °N, 104.81 °W | Updated 1 hour ago

Partly Cloudy
Partly Cloudy
32 °F
Feels Like 24 °F
N
9
Wind Variable Wind from SSW

Today
High -- | Low -- °F
--% Chance of Precip.
Yesterday
High -- | Low -- °F
Precip. -- in
Pressure 30.02 in
Visibility 10.0 miles
Clouds Clear
Windchill 24 °F
Dew Point 27 °F
Humidity 82%
Rainfall 0.00 in
Snow Depth Not available.
7:31 AM 4:13 PM
Waxing Gibbous, 77% visible
METAR KGDV 070456Z AUTO 20008KT 10SM CLR 00/M03 A2994 RMK AO2 SLP164 T00001028 FZRANO
Pressure 30.02 in
Visibility 10.0 miles
Clouds Clear
Windchill 24 °F
Dew Point 27 °F
Humidity 82%
Rainfall 0.00 in
Snow Depth Not available.
7:31 AM 4:13 PM
Waxing Gibbous, 77% visible
METAR KGDV 070456Z AUTO 20008KT 10SM CLR 00/M03 A2994 RMK AO2 SLP164 T00001028 FZRANO

Get Your Daily Forecast Email!

Thanks for signing up!

Be on the lookout for a verification email in your inbox.

You'll start receiving severe weather alerts in your inbox..

×

10-Day Weather Forecast

Almanac

Astronomy

Dec. 06, 2019 Rise Set
Actual Time
Civil Twilight
Nautical Twilight
Astronomical Twilight
Moon
Length of Visible Light
Length of Day
Tomorrow will be .
, % of the Moon is Illuminated

Today's Extremes

State Highs State Lows

Community

WunderPhotos

Category 6

Welcome to Category 6. This is the collective home for Weather Underground's featured writeups by Dr. Jeff Masters (right), Bob Henson (left), Chris Burt, and other regular contributors.

Nearby

Air Quality

  Air Quality AQ Index Pollutant
Not available.

Snow Depth

Station Depth Elevation

Earthquake Activity

City Distance Mag. Time & Date
Minimum magnitude displayed is 2.5.

Coastal Water Temperatures

Place Temperature

Stations

Nearby Weather Stations

Station Location Temp. Windchill Dew Point Humidity Wind Precip. Elev Updated Type
                   

Watches & Warnings

Winter Weather Advisory
Issued: 2:26 PM MST Dec. 6, 2019 – National Weather Service

... Winter Weather Advisory in effect from 5 am to 5 PM MST
Sunday...

* what... snow expected. Total snow accumulations of 2 to 4
inches.

* Where... Dawson, prairie, and Wibaux counties.

* When... from 5 am to 5 PM MST Sunday.

* Impacts... plan on slippery Road conditions.

* Additional details... brief periods of freezing rain are possible
overnight Saturday night.

Precautionary/preparedness actions...

Slow down and use caution while traveling.

The latest Road conditions for the state you are calling from can
be obtained by calling 5 1 1.